Time;durP1;ratioP1;P1;durP2;ratioP2;P2;SDS_P1;SDS_P2;PMS_P1;PMS_P2;Temp;Humidity;BMP_temperature;BMP_pressure;BME280_temperature;BME280_humidity;BME280_pressure;Samples;Min_cycle;Max_cycle;Signal;HPM_P1;HPM_P2
2021/11/21 00:02:25;;;;;;;2.77;2.53;;;;;;;20.38;54.25;97454.34;5013623;28;20272;-66
2021/11/21 00:04:52;;;;;;;2.70;2.50;;;;;;;20.28;54.19;97436.97;5016146;28;20250;-68
2021/11/21 00:07:18;;;;;;;2.93;2.50;;;;;;;20.34;54.20;97441.41;5016397;28;20229;-66
2021/11/21 00:09:45;;;;;;;2.63;2.43;;;;;;;20.39;54.30;97439.88;5015982;28;20217;-66
2021/11/21 00:12:11;;;;;;;4.07;2.60;;;;;;;20.40;54.14;97433.97;5018191;28;20233;-66
2021/11/21 00:14:38;;;;;;;2.93;2.73;;;;;;;20.39;54.12;97422.88;5014190;28;20229;-66
2021/11/21 00:17:07;;;;;;;2.90;2.70;;;;;;;20.40;54.16;97423.75;5019603;28;20229;-66
2021/11/21 00:19:40;;;;;;;2.70;2.50;;;;;;;20.39;54.08;97420.31;5016104;28;20225;-63
2021/11/21 00:22:13;;;;;;;2.60;2.40;;;;;;;20.37;54.04;97405.78;5013564;28;20786;-66
2021/11/21 00:24:40;;;;;;;3.20;2.90;;;;;;;20.40;54.05;97405.88;5008561;28;20312;-67
2021/11/21 00:27:07;;;;;;;3.00;2.70;;;;;;;20.20;54.01;97366.09;5011330;28;20749;-66
2021/11/21 00:29:33;;;;;;;2.63;2.43;;;;;;;20.13;54.17;97344.59;5015288;28;20257;-66
2021/11/21 00:32:00;;;;;;;2.80;2.60;;;;;;;20.31;54.05;97368.16;5013944;28;20635;-66
2021/11/21 00:34:27;;;;;;;2.57;2.37;;;;;;;20.38;54.06;97382.88;5019825;28;20206;-68
2021/11/21 00:36:54;;;;;;;3.00;2.70;;;;;;;20.39;54.18;97378.59;5016419;28;20226;-66
2021/11/21 00:39:20;;;;;;;2.77;2.57;;;;;;;20.37;54.36;97370.91;5024519;28;20256;-65
2021/11/21 00:41:47;;;;;;;3.20;2.90;;;;;;;20.38;53.79;97364.13;5022527;28;20234;-66
2021/11/21 00:44:13;;;;;;;2.83;2.63;;;;;;;19.83;54.05;97267.09;5017867;28;20515;-66
2021/11/21 00:46:40;;;;;;;2.50;2.30;;;;;;;20.37;54.17;97354.75;5013184;28;20226;-67
2021/11/21 00:49:13;;;;;;;2.53;2.33;;;;;;;20.38;54.16;97356.47;5018448;28;20226;-65
2021/11/21 00:51:39;;;;;;;2.40;2.20;;;;;;;20.24;54.03;97338.16;5016442;28;20237;-67
2021/11/21 00:54:20;;;;;;;2.70;2.50;;;;;;;20.17;54.30;97325.16;5084263;22;20302;-64
2021/11/21 00:56:47;;;;;;;2.53;2.33;;;;;;;20.36;54.34;97353.88;4993895;28;20256;-62
2021/11/21 00:59:19;;;;;;;2.70;2.50;;;;;;;20.36;54.21;97351.31;5025154;28;20206;-62
2021/11/21 01:01:54;;;;;;;2.87;2.67;;;;;;;20.38;54.29;97351.38;5013537;28;20307;-62
2021/11/21 01:04:21;;;;;;;2.90;2.70;;;;;;;20.12;54.21;97309.69;5015662;28;20214;-62
2021/11/21 01:06:48;;;;;;;2.80;2.60;;;;;;;20.37;54.16;97347.94;5015252;28;20233;-62
2021/11/21 01:09:14;;;;;;;3.20;2.90;;;;;;;20.38;54.14;97351.38;5016863;28;20742;-62
2021/11/21 01:11:41;;;;;;;2.97;2.77;;;;;;;20.37;54.28;97352.19;5019278;28;20296;-65
2021/11/21 01:14:08;;;;;;;2.57;2.37;;;;;;;20.38;54.17;97351.38;5016750;28;20711;-62
2021/11/21 01:16:34;;;;;;;3.00;2.80;;;;;;;20.37;54.28;97347.94;5019929;28;20293;-62
2021/11/21 01:19:01;;;;;;;2.40;2.20;;;;;;;20.38;54.37;97346.25;5016000;28;20579;-63
2021/11/21 01:21:29;;;;;;;3.10;2.80;;;;;;;20.39;54.40;97337.75;5021474;28;20241;-63
2021/11/21 01:23:56;;;;;;;2.43;2.23;;;;;;;20.13;54.20;97303.78;5016253;28;20229;-63
2021/11/21 01:26:22;;;;;;;2.73;2.53;;;;;;;20.31;54.15;97329.88;5018702;28;20281;-62
2021/11/21 01:28:49;;;;;;;2.70;2.50;;;;;;;20.40;54.20;97331.88;5016532;28;20302;-63
2021/11/21 01:31:15;;;;;;;2.83;2.63;;;;;;;20.39;54.31;97341.19;5018571;28;20206;-63
2021/11/21 01:33:42;;;;;;;2.87;2.67;;;;;;;20.40;54.23;97344.63;5019566;28;20220;-65
2021/11/21 01:36:09;;;;;;;2.87;2.67;;;;;;;20.40;54.07;97340.38;5015835;28;20285;-63
2021/11/21 01:38:37;;;;;;;3.03;2.77;;;;;;;20.40;54.09;97340.38;5009242;28;20281;-63
2021/11/21 01:41:04;;;;;;;3.23;2.70;;;;;;;20.40;54.20;97335.25;5014673;28;20425;-62
2021/11/21 01:43:30;;;;;;;2.67;2.47;;;;;;;20.40;53.99;97336.97;5022441;28;20261;-62
2021/11/21 01:45:57;;;;;;;2.90;2.60;;;;;;;20.41;54.28;97338.69;5017260;28;20230;-64
2021/11/21 01:48:24;;;;;;;2.90;2.70;;;;;;;20.40;54.07;97332.72;5016603;28;20202;-63
2021/11/21 01:50:50;;;;;;;2.63;2.43;;;;;;;20.40;54.24;97337.81;5017109;28;20237;-62
2021/11/21 01:53:17;;;;;;;2.67;2.47;;;;;;;20.40;54.18;97336.97;4999321;28;20247;-62
2021/11/21 01:55:44;;;;;;;2.80;2.60;;;;;;;20.41;54.39;97336.13;5018629;28;20236;-64
2021/11/21 01:58:11;;;;;;;2.70;2.50;;;;;;;20.41;54.25;97331.91;5007476;28;20225;-63
2021/11/21 02:00:41;;;;;;;2.60;2.40;;;;;;;20.39;54.34;97328.44;5004222;28;20290;-64
2021/11/21 02:03:07;;;;;;;3.00;2.80;;;;;;;19.59;53.97;97182.19;5008404;28;20304;-63
2021/11/21 02:05:34;;;;;;;2.63;2.43;;;;;;;20.40;54.08;97319.09;5011321;28;21236;-65
2021/11/21 02:08:03;;;;;;;3.00;2.80;;;;;;;20.39;54.26;97322.47;5023789;28;20297;-63
2021/11/21 02:10:31;;;;;;;2.63;2.43;;;;;;;20.38;54.25;97326.72;5008981;28;20238;-62
2021/11/21 02:12:57;;;;;;;2.40;2.20;;;;;;;20.39;54.14;97325.88;5022775;28;20647;-63
2021/11/21 02:15:24;;;;;;;2.57;2.37;;;;;;;20.38;54.24;97319.06;5020592;28;20681;-63
2021/11/21 02:17:51;;;;;;;3.03;2.73;;;;;;;20.38;54.30;97316.50;5021314;28;20252;-64
2021/11/21 02:20:38;;;;;;;2.90;2.70;;;;;;;20.38;54.27;97298.63;5019930;28;20236;-62
2021/11/21 02:23:05;;;;;;;3.13;2.83;;;;;;;20.38;54.08;97290.97;5001880;28;20641;-62
2021/11/21 02:25:32;;;;;;;2.83;2.63;;;;;;;20.38;54.34;97285.88;5014004;28;20653;-63
2021/11/21 02:27:58;;;;;;;5.50;2.60;;;;;;;20.38;54.35;97283.31;5016258;28;20277;-62
2021/11/21 02:30:25;;;;;;;2.77;2.57;;;;;;;20.38;54.35;97275.66;5015749;28;20370;-63
2021/11/21 02:32:52;;;;;;;2.80;2.60;;;;;;;20.39;54.14;97264.63;5018685;28;20238;-63
2021/11/21 02:35:19;;;;;;;2.80;2.60;;;;;;;20.39;54.14;97259.53;5014783;28;20253;-64
2021/11/21 02:37:45;;;;;;;2.77;2.57;;;;;;;20.39;54.00;97251.88;5022790;28;20225;-62
2021/11/21 02:40:12;;;;;;;2.80;2.60;;;;;;;20.39;54.15;97253.53;5017978;28;20285;-62
2021/11/21 02:42:39;;;;;;;2.63;2.43;;;;;;;20.39;54.25;97249.31;5020532;28;20237;-62
2021/11/21 02:45:08;;;;;;;2.70;2.50;;;;;;;20.39;54.29;97246.75;5017135;28;20296;-63
2021/11/21 02:47:34;;;;;;;2.77;2.57;;;;;;;20.41;54.11;97249.34;5019377;28;20661;-64
2021/11/21 02:50:05;;;;;;;2.50;2.30;;;;;;;20.40;54.23;97245.09;5012078;28;20281;-63
2021/11/21 02:52:32;;;;;;;3.20;2.90;;;;;;;20.41;54.21;97237.47;5009229;28;20660;-64
2021/11/21 02:54:59;;;;;;;2.87;2.67;;;;;;;19.67;54.08;97097.50;5015765;28;20305;-63
2021/11/21 02:57:26;;;;;;;2.90;2.70;;;;;;;20.41;54.09;97226.38;5018415;28;20241;-63
2021/11/21 02:59:53;;;;;;;2.73;2.53;;;;;;;20.41;54.20;97218.72;5014029;28;20616;-63
2021/11/21 03:02:19;;;;;;;3.00;2.70;;;;;;;20.41;54.15;97227.25;5015100;28;20229;-64
2021/11/21 03:04:47;;;;;;;2.70;2.50;;;;;;;20.42;54.25;97225.56;5015095;28;20317;-63
2021/11/21 03:07:13;;;;;;;3.07;2.77;;;;;;;20.42;54.11;97212.78;5010241;28;20622;-62
2021/11/21 03:09:40;;;;;;;3.00;2.80;;;;;;;19.63;54.17;97082.06;5013679;28;20642;-63
2021/11/21 03:12:07;;;;;;;3.20;2.77;;;;;;;20.37;53.92;97187.13;5009890;28;20284;-63
2021/11/21 03:14:34;;;;;;;2.70;2.50;;;;;;;20.42;54.05;97207.69;5002461;28;20662;-62
2021/11/21 03:17:00;;;;;;;3.33;3.03;;;;;;;20.36;54.08;97204.97;5013722;28;20640;-63
2021/11/21 03:19:27;;;;;;;2.97;2.77;;;;;;;20.41;54.06;97206.84;5020406;28;20229;-63
2021/11/21 03:21:54;;;;;;;2.93;2.73;;;;;;;20.41;54.03;97201.75;5008556;28;20289;-61
2021/11/21 03:24:20;;;;;;;2.80;2.50;;;;;;;20.41;53.97;97195.75;5012862;28;20650;-61
2021/11/21 03:26:47;;;;;;;3.23;2.93;;;;;;;20.42;53.94;97207.69;5015172;28;20226;-64
2021/11/21 03:29:13;;;;;;;2.80;2.60;;;;;;;20.41;54.06;97213.63;5021150;28;20203;-62
2021/11/21 03:31:40;;;;;;;2.87;2.67;;;;;;;20.41;53.50;97217.06;5010839;28;20238;-64
2021/11/21 03:34:06;;;;;;;2.93;2.73;;;;;;;20.41;54.11;97213.63;5023376;28;20256;-63
2021/11/21 03:36:33;;;;;;;2.80;2.60;;;;;;;20.40;54.22;97212.75;5011155;28;20296;-62
2021/11/21 03:39:00;;;;;;;3.07;2.87;;;;;;;20.40;54.07;97210.19;5016911;28;20229;-62
2021/11/21 03:41:27;;;;;;;4.33;2.70;;;;;;;20.40;53.91;97211.91;5014020;28;20229;-63
2021/11/21 03:43:53;;;;;;;2.50;2.30;;;;;;;20.40;54.22;97202.53;5013410;28;20221;-62
2021/11/21 03:46:21;;;;;;;2.60;2.40;;;;;;;20.39;54.17;97205.94;5010499;28;20308;-64
2021/11/21 03:48:48;;;;;;;2.57;2.37;;;;;;;20.40;54.03;97196.59;5015736;28;20785;-61
2021/11/21 03:51:14;;;;;;;2.83;2.63;;;;;;;20.40;54.35;97196.59;5012489;28;20202;-63
2021/11/21 03:53:41;;;;;;;2.50;2.30;;;;;;;20.40;54.55;97207.66;5015208;28;20285;-63
2021/11/21 03:56:08;;;;;;;2.70;2.50;;;;;;;20.40;54.33;97194.03;5006286;28;20301;-62
2021/11/21 03:58:34;;;;;;;2.70;2.50;;;;;;;20.41;54.30;97183.88;5018400;28;20205;-61
2021/11/21 04:01:01;;;;;;;2.53;2.33;;;;;;;20.41;53.72;97180.44;5006554;28;20711;-63
2021/11/21 04:03:27;;;;;;;2.53;2.33;;;;;;;20.41;54.23;97163.47;5015403;28;20221;-62
2021/11/21 04:05:54;;;;;;;2.73;2.53;;;;;;;20.42;54.15;97166.84;5009820;28;20667;-63
2021/11/21 04:08:21;;;;;;;2.90;2.70;;;;;;;19.47;54.20;96999.19;5014863;28;20293;-60
2021/11/21 04:10:47;;;;;;;2.50;2.30;;;;;;;20.42;54.32;97156.63;5021665;28;20247;-64
2021/11/21 04:13:14;;;;;;;2.43;2.23;;;;;;;20.42;53.77;97154.09;5016200;28;20629;-62
2021/11/21 04:15:40;;;;;;;2.53;2.33;;;;;;;20.42;54.10;97156.63;5009942;28;20727;-63
2021/11/21 04:18:09;;;;;;;3.07;2.87;;;;;;;20.16;54.12;97115.09;5019561;28;20202;-62
2021/11/21 04:20:35;;;;;;;2.77;2.57;;;;;;;20.43;54.23;97158.41;5016856;28;20585;-62
2021/11/21 04:23:02;;;;;;;2.60;2.40;;;;;;;20.44;54.22;97157.56;5021943;28;20240;-64
2021/11/21 04:25:29;;;;;;;2.70;2.50;;;;;;;20.43;54.06;97159.25;5013140;28;20261;-62
2021/11/21 04:27:55;;;;;;;2.90;2.70;;;;;;;20.43;53.70;97159.25;5012521;28;20658;-62
2021/11/21 04:30:22;;;;;;;2.90;2.70;;;;;;;20.18;54.21;97110.91;4983776;28;20228;-62
2021/11/21 04:32:48;;;;;;;2.70;2.50;;;;;;;20.43;54.04;97154.13;4996970;28;20238;-64
2021/11/21 04:35:17;;;;;;;2.77;2.57;;;;;;;20.39;54.05;97138.69;5015292;28;20214;-63
2021/11/21 04:37:43;;;;;;;2.70;2.50;;;;;;;20.42;53.95;97143.88;5009004;28;20210;-62
2021/11/21 04:40:10;;;;;;;2.40;2.20;;;;;;;20.44;54.08;97137.13;5008922;28;20242;-62
2021/11/21 04:42:37;;;;;;;2.73;2.53;;;;;;;20.43;54.10;97128.59;5017633;28;20225;-63
2021/11/21 04:45:04;;;;;;;2.90;2.70;;;;;;;20.43;54.03;97123.50;5004345;28;20223;-62
2021/11/21 04:47:30;;;;;;;2.60;2.40;;;;;;;20.43;53.85;97131.16;5016955;28;20235;-62
2021/11/21 04:49:57;;;;;;;2.50;2.30;;;;;;;20.27;53.92;97093.28;5015705;28;20667;-62
2021/11/21 04:52:24;;;;;;;3.07;2.87;;;;;;;20.12;54.23;97058.81;5020234;28;20305;-65
2021/11/21 04:54:50;;;;;;;2.90;2.70;;;;;;;20.42;53.94;97109.03;5017496;28;20257;-62
2021/11/21 04:57:17;;;;;;;2.80;2.60;;;;;;;20.42;54.17;97109.03;5017187;28;20225;-62
2021/11/21 04:59:44;;;;;;;2.90;2.70;;;;;;;20.42;53.99;97110.69;5011754;28;20211;-64
2021/11/21 05:02:11;;;;;;;3.03;2.83;;;;;;;20.42;54.04;97105.59;5002538;28;20227;-62
2021/11/21 05:04:37;;;;;;;2.67;2.47;;;;;;;20.41;54.07;97102.19;4997381;28;20754;-62
2021/11/21 05:07:04;;;;;;;3.13;2.83;;;;;;;20.41;54.22;97094.53;5016637;28;20198;-62
2021/11/21 05:09:30;;;;;;;2.63;2.43;;;;;;;20.41;54.42;97091.13;5023435;28;20229;-63
2021/11/21 05:11:57;;;;;;;2.93;2.70;;;;;;;20.41;54.02;97096.22;5010357;28;20229;-63
2021/11/21 05:14:24;;;;;;;2.87;2.67;;;;;;;20.40;53.94;97103.00;5008024;28;20242;-62
2021/11/21 05:16:50;;;;;;;2.73;2.53;;;;;;;20.32;54.19;97090.88;5019059;28;20443;-62
2021/11/21 05:19:17;;;;;;;2.70;2.50;;;;;;;20.42;54.12;97103.91;5013648;28;20213;-65
2021/11/21 05:21:44;;;;;;;2.60;2.40;;;;;;;20.42;54.27;97108.16;5016765;28;20257;-63
2021/11/21 05:24:11;;;;;;;3.07;2.87;;;;;;;20.42;54.16;97110.69;5016260;28;20305;-63
2021/11/21 05:26:37;;;;;;;2.87;2.67;;;;;;;20.42;54.19;97105.59;5020827;28;20289;-64
2021/11/21 05:29:04;;;;;;;3.00;2.80;;;;;;;20.41;53.86;97097.09;5021652;28;20281;-62
2021/11/21 05:31:32;;;;;;;3.00;2.80;;;;;;;20.42;54.11;97088.59;5020193;28;20238;-62
2021/11/21 05:33:59;;;;;;;2.60;2.40;;;;;;;20.42;54.17;97082.63;5017268;28;20269;-62
2021/11/21 05:36:25;;;;;;;2.80;2.60;;;;;;;20.42;54.19;97078.41;5017776;28;20242;-62
2021/11/21 05:38:52;;;;;;;2.97;2.77;;;;;;;20.44;54.07;97081.00;5023521;28;20297;-62
2021/11/21 05:41:18;;;;;;;2.60;2.40;;;;;;;20.43;54.09;97075.00;5014696;28;20284;-62
2021/11/21 05:43:45;;;;;;;2.93;2.73;;;;;;;20.43;54.21;97072.47;5021139;28;20246;-62
2021/11/21 05:46:11;;;;;;;2.50;2.30;;;;;;;20.44;54.08;97074.22;5020906;28;20372;-63
2021/11/21 05:48:38;;;;;;;2.90;2.70;;;;;;;20.44;54.13;97069.09;5019361;28;20201;-62
2021/11/21 05:51:05;;;;;;;2.77;2.57;;;;;;;20.45;54.14;97072.50;5024376;28;20240;-62
2021/11/21 05:53:31;;;;;;;2.57;2.37;;;;;;;20.40;54.02;97064.72;5011601;28;20237;-63
2021/11/21 05:55:58;;;;;;;3.07;2.87;;;;;;;20.46;54.06;97076.81;5018620;28;20308;-62
2021/11/21 05:58:25;;;;;;;2.90;2.70;;;;;;;20.44;53.87;97066.56;5016057;28;20624;-62
2021/11/21 06:00:52;;;;;;;2.73;2.53;;;;;;;20.44;54.00;97070.78;5008365;28;20197;-62
2021/11/21 06:03:19;;;;;;;2.90;2.70;;;;;;;20.45;54.01;97070.81;5016392;28;20202;-64
2021/11/21 06:05:46;;;;;;;3.00;2.80;;;;;;;20.46;54.09;97074.25;5016365;28;20820;-62
2021/11/21 06:08:12;;;;;;;3.20;2.97;;;;;;;20.45;54.15;97073.38;5024500;28;20193;-62
2021/11/21 06:10:41;;;;;;;3.00;2.80;;;;;;;20.47;54.00;97070.88;5016798;28;20198;-62
2021/11/21 06:13:08;;;;;;;3.40;3.10;;;;;;;20.46;53.82;97075.09;5013018;28;20237;-62
2021/11/21 06:15:35;;;;;;;3.27;2.97;;;;;;;20.47;53.82;97070.88;5018484;28;20735;-61
2021/11/21 06:18:02;;;;;;;3.20;3.00;;;;;;;20.47;53.77;97070.88;5015871;28;20635;-61
2021/11/21 06:20:29;;;;;;;2.97;2.77;;;;;;;20.46;53.74;97064.88;5018276;28;20237;-62
2021/11/21 06:22:56;;;;;;;3.17;2.97;;;;;;;20.47;53.83;97073.41;5018324;28;20230;-62
2021/11/21 06:25:22;;;;;;;3.20;3.00;;;;;;;20.46;53.84;97072.53;5015136;28;20325;-62
2021/11/21 06:27:49;;;;;;;3.30;2.97;;;;;;;20.46;53.76;97080.19;5020128;28;20257;-62
2021/11/21 06:30:15;;;;;;;3.50;3.20;;;;;;;20.46;53.71;97084.47;5012977;28;20264;-63
2021/11/21 06:32:42;;;;;;;3.00;2.80;;;;;;;20.46;53.80;97087.00;5016475;28;20248;-62
2021/11/21 06:35:08;;;;;;;3.13;2.80;;;;;;;20.46;53.92;97092.13;5015224;28;20306;-62
2021/11/21 06:37:35;;;;;;;3.30;3.00;;;;;;;20.46;53.97;97084.47;5024432;28;20587;-62
2021/11/21 06:40:03;;;;;;;3.53;3.23;;;;;;;20.46;54.04;97090.41;4983769;28;20202;-62
2021/11/21 06:42:30;;;;;;;3.20;2.90;;;;;;;20.47;53.96;97094.72;5014768;28;20230;-61
2021/11/21 06:44:57;;;;;;;3.80;3.50;;;;;;;20.48;53.92;97093.00;5018015;28;20230;-62
2021/11/21 06:47:23;;;;;;;6.10;5.60;;;;;;;20.48;52.72;97087.88;5007843;28;20263;-64
2021/11/21 06:49:50;;;;;;;10.03;9.03;;;;;;;20.47;50.40;97081.94;5015467;28;20253;-62
2021/11/21 06:52:18;;;;;;;10.80;9.50;;;;;;;20.46;48.90;97069.97;4995539;28;20201;-65
2021/11/21 06:54:45;;;;;;;11.60;10.50;;;;;;;20.46;47.21;97074.25;5041675;23;20269;-63
2021/11/21 06:57:12;;;;;;;11.50;10.40;;;;;;;20.44;46.15;97063.13;4998155;28;20256;-60
2021/11/21 06:59:39;;;;;;;11.70;10.60;;;;;;;20.41;45.83;97057.94;5006699;28;20206;-60
2021/11/21 07:02:05;;;;;;;13.20;11.90;;;;;;;20.41;46.00;97063.91;5020212;28;20275;-60
2021/11/21 07:04:33;;;;;;;13.03;11.23;;;;;;;20.22;45.19;97025.97;5009220;28;20920;-60
2021/11/21 07:07:00;;;;;;;13.63;12.20;;;;;;;20.40;44.46;97054.50;4985702;28;20202;-60
2021/11/21 07:09:26;;;;;;;12.53;11.33;;;;;;;20.33;43.94;97049.19;5003807;28;20281;-61
2021/11/21 07:11:53;;;;;;;12.33;11.13;;;;;;;20.36;43.59;97057.81;5004163;28;20227;-60
2021/11/21 07:14:19;;;;;;;12.10;10.97;;;;;;;20.34;42.96;97061.16;5001036;28;20676;-61
2021/11/21 07:16:48;;;;;;;12.77;11.57;;;;;;;20.34;42.75;97058.63;5002092;28;20324;-60
2021/11/21 07:19:15;;;;;;;12.67;11.40;;;;;;;20.33;42.67;97054.31;4997481;28;20202;-61
2021/11/21 07:21:41;;;;;;;12.23;11.03;;;;;;;20.32;42.41;97061.13;4995080;28;20226;-61
2021/11/21 07:24:08;;;;;;;12.40;11.20;;;;;;;20.28;42.02;97059.28;4998602;28;20309;-60
2021/11/21 07:26:35;;;;;;;12.57;11.37;;;;;;;20.30;42.11;97061.88;4998396;28;20775;-60
2021/11/21 07:29:02;;;;;;;13.60;12.23;;;;;;;20.27;41.81;97062.69;5003303;28;20260;-63
2021/11/21 07:31:29;;;;;;;12.27;11.07;;;;;;;20.28;41.42;97061.00;4999791;28;20757;-61
2021/11/21 07:33:56;;;;;;;13.00;11.70;;;;;;;20.23;41.53;97052.34;5001400;28;20676;-61
2021/11/21 07:36:22;;;;;;;13.23;11.60;;;;;;;20.26;41.68;97054.97;4981951;28;20250;-59
2021/11/21 07:38:49;;;;;;;11.50;10.40;;;;;;;20.24;41.69;97052.38;4987535;28;20241;-60
2021/11/21 07:41:16;;;;;;;12.30;11.10;;;;;;;20.24;42.40;97048.97;5003704;28;20203;-61
2021/11/21 07:43:42;;;;;;;12.60;11.40;;;;;;;20.24;43.09;97046.41;5008748;28;20229;-60
2021/11/21 07:46:09;;;;;;;11.27;9.83;;;;;;;20.22;43.69;97043.81;5006879;28;20219;-60
2021/11/21 07:48:35;;;;;;;10.47;9.47;;;;;;;20.22;44.45;97041.25;4989196;28;20195;-60
2021/11/21 07:51:02;;;;;;;9.77;8.80;;;;;;;20.05;45.11;97006.78;5000348;28;20275;-61
2021/11/21 07:53:29;;;;;;;10.40;9.10;;;;;;;20.23;45.93;97044.69;4971930;28;20240;-63
2021/11/21 07:55:56;;;;;;;10.27;8.30;;;;;;;20.24;46.46;97042.19;4983134;28;20313;-59
2021/11/21 07:58:23;;;;;;;9.77;8.77;;;;;;;20.23;46.91;97045.56;4999037;28;20223;-62
2021/11/21 08:00:49;;;;;;;8.70;7.70;;;;;;;20.21;47.38;97034.44;4979358;28;20203;-60
2021/11/21 08:03:16;;;;;;;10.07;7.87;;;;;;;20.27;47.78;97043.94;4970974;28;20199;-61
2021/11/21 08:05:43;;;;;;;9.50;8.20;;;;;;;20.23;47.70;97031.94;4977517;28;20232;-62
2021/11/21 08:08:09;;;;;;;8.63;7.80;;;;;;;20.27;48.03;97041.38;4974488;28;20254;-62
2021/11/21 08:10:36;;;;;;;8.87;7.97;;;;;;;20.30;48.29;97054.22;4974262;28;20237;-61
2021/11/21 08:13:04;;;;;;;8.87;7.67;;;;;;;20.31;48.38;97045.78;4995732;28;20618;-61
2021/11/21 08:15:31;;;;;;;8.10;7.30;;;;;;;20.09;48.56;97010.25;5001077;28;20958;-60
2021/11/21 08:17:58;;;;;;;8.13;7.27;;;;;;;19.87;49.05;96973.97;4983734;28;20261;-61
2021/11/21 08:20:26;;;;;;;8.03;7.23;;;;;;;20.30;48.97;97051.69;4997466;28;20234;-62
2021/11/21 08:22:54;;;;;;;10.87;6.80;;;;;;;20.34;49.24;97053.50;4983898;28;20198;-61
2021/11/21 08:25:20;;;;;;;7.63;6.50;;;;;;;20.35;49.33;97058.66;4995861;28;20261;-61
2021/11/21 08:27:47;;;;;;;7.47;6.70;;;;;;;20.35;49.66;97053.56;4990377;28;20226;-61
2021/11/21 08:30:13;;;;;;;6.33;5.73;;;;;;;20.38;49.69;97060.41;5001984;28;20283;-61
2021/11/21 08:32:40;;;;;;;7.00;6.30;;;;;;;20.26;49.93;97038.00;4977895;28;20237;-62
2021/11/21 08:35:06;;;;;;;7.00;6.40;;;;;;;20.39;49.91;97062.13;4981796;28;20306;-62
2021/11/21 08:37:33;;;;;;;8.07;6.93;;;;;;;20.40;49.75;97066.44;4981946;28;20202;-61
2021/11/21 08:40:00;;;;;;;7.60;5.70;;;;;;;20.38;49.91;97056.19;4996646;28;20230;-61
2021/11/21 08:42:28;;;;;;;6.67;6.00;;;;;;;20.40;50.36;97056.22;5004293;28;20207;-61
2021/11/21 08:44:54;;;;;;;6.43;5.83;;;;;;;20.24;50.01;97029.44;5002008;28;20704;-59
2021/11/21 08:47:21;;;;;;;6.30;5.60;;;;;;;20.29;49.48;97030.41;4968142;28;20285;-62
2021/11/21 08:49:47;;;;;;;6.50;5.90;;;;;;;20.42;50.04;97047.78;4968712;28;20229;-61
2021/11/21 08:52:14;;;;;;;5.83;5.33;;;;;;;20.42;50.26;97046.91;4979380;28;20253;-61
2021/11/21 08:54:42;;;;;;;7.33;5.53;;;;;;;20.42;50.39;97047.78;4995252;28;20237;-60
2021/11/21 08:57:09;;;;;;;6.20;5.60;;;;;;;20.41;50.27;97040.94;5001535;28;20195;-60
2021/11/21 08:59:35;;;;;;;6.73;5.60;;;;;;;20.40;50.18;97046.84;5001966;28;20238;-62
2021/11/21 09:02:02;;;;;;;6.17;5.27;;;;;;;20.36;50.33;97039.06;5003024;28;20239;-60
2021/11/21 09:04:29;;;;;;;8.73;5.77;;;;;;;20.41;50.39;97045.19;4987034;28;20205;-61
2021/11/21 09:06:56;;;;;;;6.23;5.20;;;;;;;20.40;50.37;97035.81;4998562;28;20261;-63
2021/11/21 09:09:22;;;;;;;5.57;5.07;;;;;;;20.39;50.92;97045.13;4970694;28;20612;-63
2021/11/21 09:11:49;;;;;;;6.57;5.23;;;;;;;20.40;50.71;97046.84;4998519;28;20250;-61
2021/11/21 09:14:16;;;;;;;6.03;5.43;;;;;;;20.32;50.59;97037.28;5005454;28;20230;-60
2021/11/21 09:16:44;;;;;;;5.57;5.00;;;;;;;20.38;50.85;97056.19;4956309;28;20225;-60
2021/11/21 09:19:11;;;;;;;5.80;5.30;;;;;;;20.39;50.86;97062.13;4986559;28;20229;-62
2021/11/21 09:21:38;;;;;;;6.07;5.47;;;;;;;20.39;51.03;97055.34;4993888;28;20199;-61
2021/11/21 09:24:05;;;;;;;6.87;5.03;;;;;;;20.40;51.01;97053.66;5002500;28;20260;-62
2021/11/21 09:26:31;;;;;;;6.00;5.30;;;;;;;20.40;51.02;97059.63;4982784;28;20261;-61
2021/11/21 09:28:58;;;;;;;6.13;5.10;;;;;;;20.39;51.64;97050.25;5008287;28;20285;-60
2021/11/21 09:31:25;;;;;;;6.03;5.50;;;;;;;20.41;51.17;97055.38;5003309;28;20241;-60
2021/11/21 09:33:51;;;;;;;8.07;5.50;;;;;;;20.36;51.09;97045.06;4997914;28;20203;-61
2021/11/21 09:36:18;;;;;;;6.13;5.57;;;;;;;20.41;51.15;97047.72;4985578;28;20253;-62
2021/11/21 09:38:44;;;;;;;5.93;5.30;;;;;;;20.39;51.13;97046.81;4986595;28;20199;-61
2021/11/21 09:41:11;;;;;;;7.50;5.20;;;;;;;20.41;51.22;97048.59;5007247;28;20854;-61
2021/11/21 09:43:42;;;;;;;5.77;5.10;;;;;;;20.41;51.25;97051.16;4985355;28;20318;-61
2021/11/21 09:46:11;;;;;;;5.67;5.10;;;;;;;20.43;51.24;97051.19;4969429;28;20221;-62
2021/11/21 09:48:37;;;;;;;5.30;4.80;;;;;;;20.43;51.36;97048.66;4985661;28;20206;-61
2021/11/21 09:51:04;;;;;;;6.67;5.10;;;;;;;20.21;51.25;97008.94;5006936;28;20234;-61
2021/11/21 09:53:31;;;;;;;5.23;4.73;;;;;;;20.42;51.29;97040.13;4984808;28;20222;-62
2021/11/21 09:55:58;;;;;;;5.77;5.27;;;;;;;20.39;51.17;97026.41;5001771;28;20305;-62
2021/11/21 09:58:24;;;;;;;6.03;5.17;;;;;;;20.43;51.54;97036.72;4985803;28;20582;-62
2021/11/21 10:00:51;;;;;;;5.40;4.90;;;;;;;20.42;51.46;97035.00;4998512;28;20645;-62
2021/11/21 10:03:20;;;;;;;8.17;5.10;;;;;;;20.41;51.31;97032.41;5004598;28;20671;-61
2021/11/21 10:05:53;;;;;;;5.10;4.60;;;;;;;20.44;51.36;97029.94;4980648;28;20711;-64
2021/11/21 10:08:20;;;;;;;7.73;4.77;;;;;;;20.43;51.29;97029.06;5001851;28;20280;-62
2021/11/21 10:10:52;;;;;;;5.27;4.77;;;;;;;20.43;51.33;97029.06;5003154;28;20244;-63
2021/11/21 10:13:25;;;;;;;5.23;4.73;;;;;;;20.43;51.50;97023.97;4999201;28;20234;-63
2021/11/21 10:15:52;;;;;;;4.87;4.47;;;;;;;20.43;51.44;97023.97;5000744;28;20210;-62
2021/11/21 10:18:20;;;;;;;6.03;4.40;;;;;;;20.41;51.31;97015.44;5000776;28;20248;-62
2021/11/21 10:20:46;;;;;;;5.23;4.73;;;;;;;20.43;51.51;97008.66;4965651;28;20202;-63
2021/11/21 10:23:13;;;;;;;6.07;5.30;;;;;;;20.42;51.29;96998.41;4980609;28;20202;-62
2021/11/21 10:25:51;;;;;;;5.93;5.00;;;;;;;20.44;51.54;97009.53;4964705;28;20258;-62
2021/11/21 10:28:18;;;;;;;5.90;5.30;;;;;;;20.44;51.57;97001.88;5005792;28;20222;-62
2021/11/21 10:30:57;;;;;;;5.90;5.33;;;;;;;20.44;51.59;96999.31;4992224;28;20203;-62
2021/11/21 10:33:28;;;;;;;5.77;5.10;;;;;;;20.44;51.51;96994.22;4999878;28;20729;-62
2021/11/21 10:36:00;;;;;;;7.93;5.30;;;;;;;20.44;51.55;96999.31;4967082;28;20711;-62
2021/11/21 10:38:31;;;;;;;6.57;5.23;;;;;;;20.43;51.52;96995.88;5002305;28;20201;-62
2021/11/21 10:40:58;;;;;;;5.60;4.80;;;;;;;20.42;51.62;96994.16;5001938;28;20234;-63
2021/11/21 10:43:25;;;;;;;5.63;5.13;;;;;;;20.43;51.86;96990.78;4968337;28;20199;-62
2021/11/21 10:45:51;;;;;;;5.13;4.63;;;;;;;20.41;51.55;96989.03;5000814;28;20265;-62
2021/11/21 10:48:25;;;;;;;4.87;4.40;;;;;;;20.40;51.72;96993.25;4998075;28;20199;-62
2021/11/21 10:50:52;;;;;;;4.80;4.30;;;;;;;20.25;51.68;96967.34;4998086;28;20229;-60
2021/11/21 10:53:19;;;;;;;5.20;4.73;;;;;;;20.42;51.87;96991.63;4977297;28;20290;-63
2021/11/21 10:55:46;;;;;;;4.90;4.40;;;;;;;20.42;51.97;96994.16;4995908;28;20812;-62
2021/11/21 10:58:14;;;;;;;5.87;4.80;;;;;;;20.43;51.90;96995.88;5003492;28;20681;-62
2021/11/21 11:00:41;;;;;;;5.17;4.60;;;;;;;20.43;51.86;96990.78;4993280;28;20231;-62
2021/11/21 11:03:19;;;;;;;4.80;4.37;;;;;;;20.42;51.86;96988.19;4966209;28;20210;-62
2021/11/21 11:05:46;;;;;;;4.60;4.20;;;;;;;20.44;51.94;96982.31;4984884;28;20261;-62
2021/11/21 11:08:26;;;;;;;4.97;4.43;;;;;;;20.43;51.87;96979.72;4984544;28;20195;-62
2021/11/21 11:10:53;;;;;;;5.00;4.27;;;;;;;20.32;51.86;96961.59;4996889;28;20241;-62
2021/11/21 11:13:22;;;;;;;4.37;3.97;;;;;;;20.46;51.92;96982.34;4968322;28;20203;-63
2021/11/21 11:15:50;;;;;;;4.63;4.23;;;;;;;20.47;52.07;96989.19;4998098;28;20246;-62
2021/11/21 11:18:17;;;;;;;4.93;4.43;;;;;;;20.47;51.94;96981.53;5002530;28;20198;-62
2021/11/21 11:20:48;;;;;;;4.90;4.40;;;;;;;20.42;52.07;96972.88;5003963;28;20253;-62
2021/11/21 11:23:16;;;;;;;5.40;4.30;;;;;;;20.47;52.02;96982.41;4970959;28;20572;-62
2021/11/21 11:25:44;;;;;;;4.73;4.33;;;;;;;20.42;51.64;96967.78;4996312;28;20308;-62
2021/11/21 11:28:28;;;;;;;4.43;4.00;;;;;;;20.47;51.93;96974.75;4970547;28;20198;-62
2021/11/21 11:30:56;;;;;;;5.13;4.07;;;;;;;20.48;51.83;96975.59;4966192;28;20202;-61
2021/11/21 11:33:43;;;;;;;5.37;4.60;;;;;;;20.46;51.64;96973.00;5002830;28;20261;-62